Time;durP1;ratioP1;P1;durP2;ratioP2;P2;SDS_P1;SDS_P2;PMS_P1;PMS_P2;Temp;Humidity;BMP_temperature;BMP_pressure;BME280_temperature;BME280_humidity;BME280_pressure;Samples;Min_cycle;Max_cycle;Signal;HPM_P1;HPM_P2
2022/06/09 00:01:16;;;;;;;5.68;4.03;;;;;;;15.24;100.00;97053.78;5034981;28;20030;-75
2022/06/09 00:03:52;;;;;;;6.03;4.22;;;;;;;15.19;100.00;97054.03;5033985;28;20112;-76
2022/06/09 00:06:17;;;;;;;7.38;4.32;;;;;;;15.15;100.00;97055.88;5033909;28;20544;-76
2022/06/09 00:08:47;;;;;;;6.28;3.85;;;;;;;15.17;100.00;97053.56;5034055;28;20033;-78
2022/06/09 00:11:16;;;;;;;9.05;4.55;;;;;;;15.17;100.00;97053.56;5033849;28;20513;-77
2022/06/09 00:13:43;;;;;;;5.57;3.83;;;;;;;15.14;100.00;97051.50;5033951;28;20557;-76
2022/06/09 00:16:10;;;;;;;5.22;3.40;;;;;;;15.09;100.00;97051.75;5033966;28;20043;-76
2022/06/09 00:18:36;;;;;;;4.95;3.90;;;;;;;15.05;100.00;97039.81;5034138;28;20030;-76
2022/06/09 00:21:02;;;;;;;3.85;3.25;;;;;;;15.02;100.00;97031.13;5033621;28;20092;-76
2022/06/09 00:23:28;;;;;;;5.32;3.70;;;;;;;15.02;100.00;97030.31;5034004;28;20034;-75
2022/06/09 00:25:54;;;;;;;4.97;3.78;;;;;;;15.03;100.00;97038.19;5033872;28;20115;-76
2022/06/09 00:28:19;;;;;;;5.60;3.72;;;;;;;15.02;100.00;97033.88;5015928;28;20459;-76
2022/06/09 00:30:46;;;;;;;5.00;3.47;;;;;;;14.99;100.00;97037.31;5033790;28;20425;-75
2022/06/09 00:33:11;;;;;;;5.25;3.50;;;;;;;14.95;100.00;97030.88;5034008;28;20017;-75
2022/06/09 00:35:37;;;;;;;6.53;4.32;;;;;;;14.90;100.00;97044.09;5034805;28;20032;-75
2022/06/09 00:38:03;;;;;;;5.47;3.50;;;;;;;14.86;100.00;97032.97;5034538;28;20475;-75
2022/06/09 00:40:28;;;;;;;8.77;4.00;;;;;;;14.85;100.00;97034.09;5033487;28;20041;-74
2022/06/09 00:42:54;;;;;;;6.13;3.90;;;;;;;14.86;100.00;97027.44;5033445;28;20430;-74
2022/06/09 00:45:39;;;;;;;5.45;3.38;;;;;;;15.03;100.00;97031.91;5033480;28;20029;-75
2022/06/09 00:48:32;;;;;;;5.03;3.58;;;;;;;15.01;100.00;97024.00;5033628;28;20040;-75
2022/06/09 00:51:26;;;;;;;8.85;3.53;;;;;;;14.93;100.00;97022.19;5033309;28;20052;-76
2022/06/09 00:53:56;;;;;;;5.70;3.53;;;;;;;14.75;100.00;97018.06;5032962;28;20090;-76
2022/06/09 00:56:23;;;;;;;4.78;3.50;;;;;;;14.72;100.00;97006.94;5033254;28;20079;-76
2022/06/09 00:58:53;;;;;;;5.07;3.58;;;;;;;14.74;100.00;97021.97;5033202;28;20112;-75
2022/06/09 01:01:19;;;;;;;4.40;3.58;;;;;;;14.75;100.00;97020.00;5033082;28;20124;-76
2022/06/09 01:03:52;;;;;;;5.15;3.80;;;;;;;14.73;100.00;97020.34;5033079;28;20045;-75
2022/06/09 01:06:26;;;;;;;8.45;4.35;;;;;;;14.73;100.00;97014.84;5033379;28;20029;-76
2022/06/09 01:09:02;;;;;;;6.22;4.00;;;;;;;14.76;100.00;97010.59;5032004;28;20028;-75
2022/06/09 01:11:27;;;;;;;6.63;4.13;;;;;;;14.71;100.00;97008.88;5033240;28;20067;-74
2022/06/09 01:13:57;;;;;;;6.13;4.13;;;;;;;14.73;100.00;97019.53;5032710;28;20037;-76
2022/06/09 01:16:48;;;;;;;5.72;4.30;;;;;;;14.62;100.00;97016.47;5032822;28;20491;-75
2022/06/09 01:19:23;;;;;;;5.32;3.58;;;;;;;14.62;100.00;97021.16;5029885;28;20050;-76
2022/06/09 01:22:18;;;;;;;8.57;3.75;;;;;;;14.60;100.00;97018.75;5032505;28;20053;-74
2022/06/09 01:24:56;;;;;;;6.07;4.18;;;;;;;14.55;100.00;97018.97;5032683;28;20030;-76
2022/06/09 01:27:47;;;;;;;5.90;4.15;;;;;;;14.48;100.00;97010.47;5032704;28;20028;-76
2022/06/09 01:30:19;;;;;;;7.82;4.45;;;;;;;14.46;100.00;97012.78;5029510;28;20461;-75
2022/06/09 01:32:57;;;;;;;6.35;4.13;;;;;;;14.39;100.00;97001.53;5034282;28;20108;-76
2022/06/09 01:35:35;;;;;;;5.88;3.95;;;;;;;14.42;100.00;97001.66;5041265;28;20037;-75
2022/06/09 01:38:00;;;;;;;6.30;3.97;;;;;;;14.48;100.00;96999.47;5051813;28;20029;-75
2022/06/09 01:40:27;;;;;;;6.35;4.20;;;;;;;14.45;100.00;97000.16;5032868;28;20367;-75
2022/06/09 01:42:56;;;;;;;5.18;3.72;;;;;;;14.38;100.00;96991.66;5031596;28;20022;-75
2022/06/09 01:45:22;;;;;;;7.80;3.83;;;;;;;14.29;100.00;96988.19;5031653;28;20049;-75
2022/06/09 01:48:04;;;;;;;7.85;3.50;;;;;;;14.27;100.00;96996.00;5031466;28;20061;-75
2022/06/09 01:50:42;;;;;;;6.13;3.60;;;;;;;14.23;100.00;96987.63;5033303;28;20498;-75
2022/06/09 01:53:13;;;;;;;5.15;3.28;;;;;;;14.27;100.00;96999.56;5051942;28;20032;-75
2022/06/09 01:55:44;;;;;;;4.55;3.53;;;;;;;14.34;100.00;96986.06;5034087;28;20017;-75
2022/06/09 01:58:15;;;;;;;5.00;3.80;;;;;;;14.24;100.00;96982.94;5052024;28;20433;-75
2022/06/09 02:00:42;;;;;;;5.38;3.55;;;;;;;14.15;100.00;96985.00;5051783;28;20040;-76
2022/06/09 02:03:24;;;;;;;6.10;3.80;;;;;;;14.18;100.00;96984.31;5051646;28;20555;-75
2022/06/09 02:05:54;;;;;;;6.95;3.83;;;;;;;14.33;100.00;96991.91;5033743;28;20037;-75
2022/06/09 02:08:22;;;;;;;4.80;3.55;;;;;;;14.32;100.00;96984.75;5052536;28;20032;-76
2022/06/09 02:10:54;;;;;;;6.78;4.30;;;;;;;14.30;100.00;96987.88;5051598;28;20025;-76
2022/06/09 02:13:29;;;;;;;4.72;3.75;;;;;;;14.42;100.00;96992.59;5051548;28;20071;-76
2022/06/09 02:16:00;;;;;;;7.82;3.70;;;;;;;14.43;100.00;96988.72;5050858;28;20036;-75
2022/06/09 02:18:28;;;;;;;4.68;3.70;;;;;;;14.47;100.00;96986.88;5033531;28;20072;-75
2022/06/09 02:20:58;;;;;;;5.72;3.75;;;;;;;14.55;100.00;96982.41;5050913;28;20048;-76
2022/06/09 02:23:23;;;;;;;6.22;3.72;;;;;;;14.44;100.00;96973.78;5051139;28;20056;-76
2022/06/09 02:25:49;;;;;;;7.22;4.20;;;;;;;14.36;100.00;96970.03;5051152;28;20112;-75
2022/06/09 02:28:14;;;;;;;4.45;3.25;;;;;;;14.38;100.00;96977.91;5039521;28;20025;-75
2022/06/09 02:30:40;;;;;;;5.40;4.05;;;;;;;14.40;100.00;96976.44;5031447;28;20033;-76
2022/06/09 02:33:07;;;;;;;6.25;3.92;;;;;;;14.33;100.00;96975.41;5031297;28;20080;-75
2022/06/09 02:35:32;;;;;;;6.30;3.85;;;;;;;14.41;100.00;96977.22;5031406;28;20475;-76
2022/06/09 02:38:00;;;;;;;8.00;4.07;;;;;;;14.33;100.00;96984.47;5032164;28;20044;-76
2022/06/09 02:40:27;;;;;;;8.80;4.35;;;;;;;14.30;100.00;96981.56;5031084;28;20045;-75
2022/06/09 02:42:53;;;;;;;8.27;4.35;;;;;;;14.05;100.00;96979.94;5031068;28;20030;-75
2022/06/09 02:45:18;;;;;;;5.85;3.72;;;;;;;14.08;100.00;96980.06;5037384;28;20363;-75
2022/06/09 02:47:44;;;;;;;6.88;4.47;;;;;;;14.08;100.00;96973.75;5050826;28;20063;-75
2022/06/09 02:50:10;;;;;;;10.50;5.00;;;;;;;13.99;100.00;96976.59;5053683;28;20025;-75
2022/06/09 02:52:36;;;;;;;6.45;4.30;;;;;;;14.04;100.00;96973.63;5050947;28;20017;-75
2022/06/09 02:55:01;;;;;;;5.82;4.15;;;;;;;13.99;100.00;96971.09;5050540;28;20031;-75
2022/06/09 02:57:29;;;;;;;6.78;4.60;;;;;;;14.04;100.00;96975.56;5050688;28;20032;-76
2022/06/09 02:59:55;;;;;;;9.63;4.35;;;;;;;13.88;100.00;96976.22;5050651;28;20529;-75
2022/06/09 03:02:21;;;;;;;6.28;3.97;;;;;;;13.92;100.00;96976.34;5050688;28;20056;-74
2022/06/09 03:04:47;;;;;;;6.60;4.70;;;;;;;13.89;100.00;96977.84;5050796;28;20511;-75
2022/06/09 03:07:13;;;;;;;6.35;4.18;;;;;;;13.86;100.00;96988.72;5050712;28;20021;-76
2022/06/09 03:09:39;;;;;;;7.00;4.00;;;;;;;13.86;100.00;96983.22;5050552;28;20107;-76
2022/06/09 03:12:06;;;;;;;5.80;4.32;;;;;;;13.84;100.00;96972.59;5050415;28;20112;-75
2022/06/09 03:14:31;;;;;;;6.65;4.72;;;;;;;13.94;100.00;96980.38;5050250;28;20441;-75
2022/06/09 03:16:56;;;;;;;6.78;4.43;;;;;;;14.00;100.00;96980.16;5050321;28;20017;-75
2022/06/09 03:19:22;;;;;;;6.40;4.45;;;;;;;14.18;100.00;96978.81;5046015;28;20044;-75
2022/06/09 03:21:48;;;;;;;6.03;3.90;;;;;;;14.20;100.00;96973.75;5048817;28;20094;-75
2022/06/09 03:24:13;;;;;;;5.10;3.85;;;;;;;14.20;100.00;96982.00;5050359;28;20497;-75
2022/06/09 03:26:39;;;;;;;4.82;3.58;;;;;;;14.24;100.00;96977.44;5036170;28;20108;-75
2022/06/09 03:29:04;;;;;;;4.60;3.70;;;;;;;14.29;100.00;96982.69;5030371;28;20033;-75
2022/06/09 03:31:29;;;;;;;5.78;3.58;;;;;;;14.31;100.00;96977.69;5029211;28;20044;-75
2022/06/09 03:33:55;;;;;;;6.55;3.97;;;;;;;14.31;100.00;96994.19;5029511;28;20069;-75
2022/06/09 03:36:20;;;;;;;6.03;4.57;;;;;;;14.26;100.00;96986.13;5029277;28;20026;-75
2022/06/09 03:38:45;;;;;;;8.00;4.75;;;;;;;14.29;100.00;96986.25;5044053;28;20068;-75
2022/06/09 03:41:11;;;;;;;9.38;4.45;;;;;;;14.37;100.00;96988.16;5050120;28;20505;-75
2022/06/09 03:43:36;;;;;;;6.82;4.53;;;;;;;14.41;100.00;96989.03;5049983;28;20390;-76
2022/06/09 03:46:02;;;;;;;9.38;5.47;;;;;;;14.44;100.00;96993.03;5049947;28;20029;-75
2022/06/09 03:48:28;;;;;;;14.38;5.53;;;;;;;14.53;100.00;96991.00;5050057;28;20518;-75
2022/06/09 03:50:54;;;;;;;10.27;5.38;;;;;;;14.72;100.00;96993.19;5049932;28;20033;-75
2022/06/09 03:53:20;;;;;;;9.02;5.95;;;;;;;14.80;100.00;96984.78;5050193;28;20112;-75
2022/06/09 03:55:46;;;;;;;9.18;5.32;;;;;;;15.00;100.00;96994.06;5050021;28;20029;-75
2022/06/09 03:58:11;;;;;;;8.02;4.90;;;;;;;15.06;100.00;96989.09;5049563;28;20032;-75
2022/06/09 04:00:36;;;;;;;8.48;4.68;;;;;;;15.37;100.00;96992.00;5048880;28;20131;-75
2022/06/09 04:03:03;;;;;;;6.82;4.80;;;;;;;15.52;100.00;96983.81;5049246;28;20040;-76
2022/06/09 04:05:30;;;;;;;7.13;4.82;;;;;;;15.52;100.00;96980.25;5049482;28;20025;-75
2022/06/09 04:07:57;;;;;;;9.85;4.65;;;;;;;15.60;100.00;96986.78;5050172;28;20025;-76
2022/06/09 04:10:25;;;;;;;13.70;5.45;;;;;;;15.58;100.00;96975.28;5049771;28;20082;-76
2022/06/09 04:12:51;;;;;;;5.07;4.10;;;;;;;15.55;100.00;96982.31;5049744;28;20163;-75
2022/06/09 04:15:17;;;;;;;10.95;4.65;;;;;;;15.44;100.00;96978.41;5049775;28;20123;-75
2022/06/09 04:17:44;;;;;;;7.95;4.95;;;;;;;15.31;100.00;96987.88;5049831;28;20024;-75
2022/06/09 04:20:11;;;;;;;6.40;4.50;;;;;;;15.29;100.00;96984.66;5049261;28;20107;-75
2022/06/09 04:22:36;;;;;;;6.43;4.38;;;;;;;15.29;100.00;96979.16;5049776;28;20104;-75
2022/06/09 04:25:03;;;;;;;6.30;4.10;;;;;;;15.31;100.00;96974.91;5049505;28;20029;-75
2022/06/09 04:27:28;;;;;;;6.10;4.43;;;;;;;15.39;100.00;96978.66;5049666;28;20087;-75
2022/06/09 04:29:53;;;;;;;8.52;4.88;;;;;;;15.45;100.00;96980.00;5049515;28;20478;-76
2022/06/09 04:32:19;;;;;;;7.40;4.25;;;;;;;15.52;100.00;96981.06;5049607;28;20501;-75
2022/06/09 04:34:44;;;;;;;5.47;4.35;;;;;;;15.53;100.00;96973.59;5048034;28;20367;-76
2022/06/09 04:37:10;;;;;;;5.10;3.95;;;;;;;15.67;100.00;96982.25;5047364;28;20025;-76
2022/06/09 04:39:35;;;;;;;5.55;4.57;;;;;;;15.75;100.00;96986.81;5052019;28;20193;-74
2022/06/09 04:42:00;;;;;;;7.60;4.57;;;;;;;15.92;100.00;96989.22;5059646;28;20036;-76
2022/06/09 04:44:26;;;;;;;5.45;4.15;;;;;;;16.04;100.00;96980.88;5053312;28;20497;-76
2022/06/09 04:46:51;;;;;;;8.95;4.47;;;;;;;16.30;100.00;96980.38;5054882;28;20024;-76
2022/06/09 04:49:16;;;;;;;9.10;4.25;;;;;;;16.51;100.00;96986.41;5050516;28;20478;-76
2022/06/09 04:51:42;;;;;;;6.25;4.53;;;;;;;16.44;100.00;96979.91;5053422;28;20033;-75
2022/06/09 04:54:07;;;;;;;12.43;4.47;;;;;;;16.49;100.00;96985.16;5053010;28;20120;-75
2022/06/09 04:56:33;;;;;;;6.38;4.63;;;;;;;16.55;100.00;96984.56;5052759;28;20021;-76
2022/06/09 04:58:59;;;;;;;9.25;4.85;;;;;;;16.74;100.00;96983.81;5052680;28;20437;-77
2022/06/09 05:01:31;;;;;;;10.98;5.10;;;;;;;16.66;100.00;96979.31;5053524;28;20032;-79
2022/06/09 05:03:57;;;;;;;8.05;5.05;;;;;;;16.82;100.00;96990.34;5052979;28;20095;-76
2022/06/09 05:06:25;;;;;;;12.15;5.40;;;;;;;16.98;100.00;96982.78;5048194;28;20029;-73
2022/06/09 05:08:53;;;;;;;5.63;4.30;;;;;;;17.35;100.00;96983.22;5042006;28;20021;-73
2022/06/09 05:11:19;;;;;;;9.07;5.03;;;;;;;17.30;100.00;96973.22;5047135;28;20113;-72
2022/06/09 05:13:44;;;;;;;9.73;5.20;;;;;;;17.43;100.00;96983.00;5045656;28;20057;-75
2022/06/09 05:16:10;;;;;;;8.07;4.65;;;;;;;17.36;100.00;96976.50;5051433;28;20036;-73
2022/06/09 05:18:37;;;;;;;7.07;4.97;;;;;;;17.43;100.00;96979.41;5051983;28;20499;-74
2022/06/09 05:21:03;;;;;;;9.07;4.93;;;;;;;17.68;100.00;96978.00;5050299;28;20040;-73
2022/06/09 05:23:29;;;;;;;5.68;4.57;;;;;;;17.47;100.00;96972.00;5051064;28;20025;-73
2022/06/09 05:25:59;;;;;;;6.97;4.93;;;;;;;17.55;100.00;96985.63;5052068;28;20036;-73
2022/06/09 05:28:26;;;;;;;7.40;4.82;;;;;;;17.47;100.00;96983.88;5051911;28;20083;-72
2022/06/09 05:30:53;;;;;;;10.35;4.47;;;;;;;17.51;100.00;96979.19;5051730;28;20083;-73
2022/06/09 05:33:19;;;;;;;9.35;5.90;;;;;;;17.33;100.00;96977.22;5051504;28;20028;-73
2022/06/09 05:35:45;;;;;;;18.83;8.38;;;;;;;17.24;100.00;96998.75;5051611;28;20103;-73
2022/06/09 05:46:25;;;;;;;30.38;17.20;;;;;;;17.23;100.00;96975.06;5052219;28;20060;-74
2022/06/09 05:48:51;;;;;;;5.75;4.25;;;;;;;17.10;100.00;96990.97;5051657;28;20482;-74
2022/06/09 05:51:17;;;;;;;7.80;5.82;;;;;;;16.97;100.00;96992.25;5051972;28;20784;-74
2022/06/09 05:53:43;;;;;;;11.57;6.93;;;;;;;16.77;100.00;96999.69;5051003;28;20043;-75
2022/06/09 05:56:09;;;;;;;7.55;5.30;;;;;;;16.69;100.00;96994.34;5051310;28;20044;-74
2022/06/09 05:58:38;;;;;;;11.88;7.07;;;;;;;16.72;100.00;97011.03;5043629;28;20033;-75
2022/06/09 06:01:08;;;;;;;8.32;4.20;;;;;;;16.50;100.00;97011.63;5050300;28;20036;-74
2022/06/09 06:03:35;;;;;;;8.57;4.90;;;;;;;16.70;100.00;97007.00;5049776;28;20385;-74
2022/06/09 06:08:44;;;;;;;7.40;4.97;;;;;;;16.43;100.00;97017.75;5051770;28;20044;-73
2022/06/09 06:11:10;;;;;;;10.38;4.90;;;;;;;16.62;100.00;97013.50;5043411;28;20025;-73
2022/06/09 06:13:35;;;;;;;8.95;4.72;;;;;;;16.88;100.00;97014.56;5046237;28;20025;-73
2022/06/09 06:16:01;;;;;;;8.02;4.70;;;;;;;16.83;100.00;97008.50;5047974;28;20025;-73
2022/06/09 06:18:27;;;;;;;5.72;4.22;;;;;;;16.95;100.00;97019.44;5035857;28;20033;-74
2022/06/09 06:20:55;;;;;;;10.20;4.88;;;;;;;17.05;100.00;97013.34;5035648;28;20604;-73
2022/06/09 06:23:22;;;;;;;6.35;4.80;;;;;;;17.31;100.00;97021.03;5027610;28;20555;-74
2022/06/09 06:25:47;;;;;;;6.70;4.50;;;;;;;17.49;100.00;97013.91;5029731;28;20033;-74
2022/06/09 06:28:12;;;;;;;6.22;5.07;;;;;;;17.39;100.00;97015.28;5047309;28;20029;-74
2022/06/09 06:30:38;;;;;;;6.15;4.47;;;;;;;16.95;100.00;97017.47;5034707;28;20036;-74
2022/06/09 06:33:03;;;;;;;7.68;4.95;;;;;;;16.78;100.00;97017.06;5046952;28;20706;-75
2022/06/09 06:35:28;;;;;;;11.45;5.25;;;;;;;17.06;100.00;97020.47;5043979;28;20462;-74
2022/06/09 06:37:54;;;;;;;6.38;4.70;;;;;;;16.70;100.00;97016.06;5048398;28;20718;-74
2022/06/09 06:40:19;;;;;;;12.02;4.57;;;;;;;16.83;100.00;97020.34;5039321;28;20037;-73
2022/06/09 06:42:44;;;;;;;6.40;4.50;;;;;;;17.22;100.00;97020.44;5027282;28;20025;-74
2022/06/09 06:45:12;;;;;;;11.77;8.80;;;;;;;17.38;100.00;97022.00;5025832;28;20029;-73
2022/06/09 06:47:38;;;;;;;11.52;8.00;;;;;;;17.22;100.00;97023.22;5038689;28;20359;-75
2022/06/09 06:50:05;;;;;;;6.25;4.63;;;;;;;17.44;100.00;97016.97;5047282;28;20539;-74
2022/06/09 06:52:30;;;;;;;6.10;4.50;;;;;;;17.57;100.00;97015.72;5046848;28;20116;-74
2022/06/09 06:54:56;;;;;;;11.60;4.45;;;;;;;17.44;100.00;97023.31;5047656;28;20117;-74
2022/06/09 06:57:21;;;;;;;6.43;4.63;;;;;;;17.53;100.00;97025.88;5041590;28;20022;-73
2022/06/09 06:59:47;;;;;;;6.88;4.80;;;;;;;17.66;100.00;97019.06;5026963;28;20029;-73
2022/06/09 07:02:12;;;;;;;6.43;4.80;;;;;;;17.79;100.00;97026.06;5027421;28;20552;-74
2022/06/09 07:04:38;;;;;;;10.38;4.90;;;;;;;17.83;100.00;97012.25;5034973;28;20020;-73
2022/06/09 07:07:05;;;;;;;11.57;7.18;;;;;;;18.04;100.00;97019.00;5046239;28;20037;-73
2022/06/09 07:09:31;;;;;;;6.68;4.78;;;;;;;17.99;100.00;97013.78;5047881;28;20170;-74
2022/06/09 07:11:56;;;;;;;7.00;4.53;;;;;;;17.86;100.00;97012.34;5045610;28;20013;-74
2022/06/09 07:14:21;;;;;;;9.38;5.00;;;;;;;17.70;100.00;97014.38;5027692;28;20029;-74
2022/06/09 07:16:47;;;;;;;8.77;4.90;;;;;;;17.73;100.00;97012.88;5027549;28;20034;-74
2022/06/09 07:19:15;;;;;;;5.78;4.57;;;;;;;17.61;100.00;97022.09;5027078;28;20018;-74
2022/06/09 07:21:40;;;;;;;7.05;4.53;;;;;;;17.51;100.00;97025.44;5045380;28;20047;-73
2022/06/09 07:24:06;;;;;;;6.65;5.13;;;;;;;17.42;100.00;97019.28;5028216;28;20025;-74
2022/06/09 07:26:31;;;;;;;10.77;5.25;;;;;;;17.44;100.00;97023.31;5027996;28;20044;-73
2022/06/09 07:28:57;;;;;;;8.32;4.93;;;;;;;17.37;100.00;97028.69;5029716;28;20124;-73
2022/06/09 07:31:22;;;;;;;7.78;5.20;;;;;;;17.39;100.00;97031.88;5029653;28;20021;-73
2022/06/09 07:33:48;;;;;;;9.57;5.93;;;;;;;17.31;100.00;97026.56;5029642;28;20025;-73
2022/06/09 07:36:17;;;;;;;14.20;5.80;;;;;;;17.24;100.00;97029.16;5029624;28;20132;-73
2022/06/09 07:38:42;;;;;;;7.38;5.40;;;;;;;17.25;100.00;97030.78;5029928;28;20076;-73
2022/06/09 07:41:09;;;;;;;11.70;6.95;;;;;;;17.31;100.00;97032.91;5029262;28;20454;-73
2022/06/09 07:43:35;;;;;;;7.80;4.93;;;;;;;17.46;100.00;97028.47;5029400;28;20052;-73
2022/06/09 07:46:01;;;;;;;6.43;4.95;;;;;;;17.46;100.00;97036.75;5029728;28;20466;-73
2022/06/09 07:48:27;;;;;;;7.63;5.20;;;;;;;17.39;100.00;97025.53;5029909;28;20034;-73
2022/06/09 07:50:53;;;;;;;7.50;4.70;;;;;;;17.25;100.00;97028.00;5029983;28;20064;-73
2022/06/09 07:53:20;;;;;;;6.80;5.07;;;;;;;17.14;100.00;97036.88;5029599;28;20025;-73
2022/06/09 07:55:47;;;;;;;6.75;5.10;;;;;;;17.01;100.00;97043.66;5029872;28;20030;-73
2022/06/09 07:58:13;;;;;;;7.55;5.45;;;;;;;17.06;100.00;97029.59;5029803;28;20505;-73
2022/06/09 08:00:39;;;;;;;7.53;4.97;;;;;;;17.05;100.00;97036.25;5029582;28;20132;-74
2022/06/09 08:03:05;;;;;;;7.30;5.63;;;;;;;17.04;100.00;97026.34;5029287;28;20119;-74
2022/06/09 08:05:32;;;;;;;8.30;5.88;;;;;;;17.09;100.00;97028.06;5028440;28;20470;-74
2022/06/09 08:07:58;;;;;;;8.25;4.95;;;;;;;17.20;100.00;97028.31;5030275;28;20010;-73
2022/06/09 08:10:26;;;;;;;7.47;4.47;;;;;;;17.28;100.00;97030.84;5028708;28;20095;-73
2022/06/09 08:12:55;;;;;;;6.72;4.97;;;;;;;17.34;100.00;97023.88;5029721;28;20048;-73
2022/06/09 08:15:24;;;;;;;8.25;5.07;;;;;;;17.42;100.00;97024.81;5029838;28;20041;-73
2022/06/09 08:17:50;;;;;;;7.13;5.20;;;;;;;17.44;100.00;97030.81;5030863;28;20057;-73
2022/06/09 08:20:16;;;;;;;6.30;4.43;;;;;;;17.53;100.00;97031.38;5031666;28;20099;-73
2022/06/09 08:22:43;;;;;;;6.70;5.25;;;;;;;17.61;100.00;97025.66;5032297;28;20025;-73
2022/06/09 08:25:12;;;;;;;7.00;5.00;;;;;;;17.77;100.00;97022.03;5033444;28;20025;-73
2022/06/09 08:27:37;;;;;;;9.00;4.50;;;;;;;17.80;100.00;97016.56;5033523;28;20029;-73
2022/06/09 08:30:05;;;;;;;9.35;5.28;;;;;;;17.92;100.00;97016.41;5033326;28;20034;-73
2022/06/09 08:32:30;;;;;;;6.38;4.93;;;;;;;17.93;100.00;97018.00;5033515;28;20113;-74
2022/06/09 08:34:56;;;;;;;8.55;5.43;;;;;;;17.98;100.00;97020.47;5033306;28;20115;-73
2022/06/09 08:37:22;;;;;;;8.18;5.03;;;;;;;17.86;100.00;97034.47;5033199;28;20116;-73
2022/06/09 08:39:47;;;;;;;6.07;4.45;;;;;;;17.83;100.00;97039.94;5033282;28;20461;-73
2022/06/09 08:42:50;;;;;;;8.73;5.38;;;;;;;17.90;100.00;97038.13;5031063;28;20087;-74
2022/06/09 08:45:28;;;;;;;6.68;4.57;;;;;;;17.96;100.00;97031.13;5033167;28;20043;-73
2022/06/09 08:47:57;;;;;;;10.32;5.13;;;;;;;17.92;100.00;97033.00;5033105;28;20036;-73
2022/06/09 08:50:43;;;;;;;7.20;5.10;;;;;;;17.96;100.00;97033.88;5032419;28;20025;-74
2022/06/09 08:53:12;;;;;;;6.93;5.35;;;;;;;17.92;100.00;97038.53;5032971;28;20030;-74
2022/06/09 08:55:40;;;;;;;7.32;5.35;;;;;;;18.07;100.00;97047.94;5032392;28;20457;-74
2022/06/09 08:58:08;;;;;;;6.15;4.47;;;;;;;18.29;100.00;97046.38;5047142;28;20037;-73
2022/06/09 09:00:38;;;;;;;6.82;4.60;;;;;;;18.49;100.00;97048.75;5014841;28;20030;-73
2022/06/09 09:03:12;;;;;;;6.15;4.63;;;;;;;18.39;100.00;97048.50;5032903;28;20033;-73
2022/06/09 09:05:55;;;;;;;7.63;4.35;;;;;;;18.36;100.00;97049.25;5032899;28;20494;-73
2022/06/09 09:08:20;;;;;;;20.27;12.65;;;;;;;18.35;100.00;97054.00;5033153;28;20071;-73
2022/06/09 09:11:00;;;;;;;8.77;5.10;;;;;;;18.16;100.00;97042.97;5029794;28;20368;-74
2022/06/09 09:13:50;;;;;;;4.20;3.55;;;;;;;17.88;100.00;97067.31;5032655;28;20359;-73
2022/06/09 09:16:21;;;;;;;8.25;5.63;;;;;;;17.87;100.00;97068.47;5031387;28;20030;-73
2022/06/09 09:18:55;;;;;;;7.88;4.13;;;;;;;17.61;100.00;97069.91;5032914;28;20075;-73
2022/06/09 09:21:52;;;;;;;6.13;3.33;;;;;;;17.71;100.00;97082.38;5031512;28;20100;-73
2022/06/09 09:24:39;;;;;;;4.93;3.53;;;;;;;17.72;100.00;97080.41;5033983;28;20124;-73
2022/06/09 09:27:34;;;;;;;5.57;3.55;;;;;;;17.72;100.00;97081.22;5032371;28;20108;-73
2022/06/09 09:30:00;;;;;;;5.47;3.28;;;;;;;17.72;100.00;97086.75;5031159;28;20116;-73
2022/06/09 09:32:33;;;;;;;4.95;3.08;;;;;;;17.82;100.00;97085.38;5031017;28;20156;-73
2022/06/09 09:34:59;;;;;;;5.75;3.05;;;;;;;17.48;100.00;97086.97;5032227;28;20112;-74
2022/06/09 09:37:29;;;;;;;4.63;3.53;;;;;;;17.64;100.00;97087.75;5032358;28;20121;-73
2022/06/09 09:40:10;;;;;;;5.80;3.67;;;;;;;17.78;100.00;97092.78;5032395;28;20037;-73
2022/06/09 09:42:37;;;;;;;4.53;3.22;;;;;;;17.95;100.00;97089.63;5032096;28;20033;-73
2022/06/09 09:45:11;;;;;;;4.68;3.33;;;;;;;17.86;100.00;97094.53;5032358;28;20041;-74
2022/06/09 09:47:57;;;;;;;4.43;3.17;;;;;;;17.83;100.00;97101.59;5031654;28;20095;-73
2022/06/09 09:50:23;;;;;;;;;;;;;;;17.75;100.00;97093.53;5032205;28;20025;-73
2022/06/09 09:52:59;;;;;;;4.60;3.15;;;;;;;17.94;100.00;97097.09;5030200;28;19920;-73
2022/06/09 09:55:29;;;;;;;5.03;3.10;;;;;;;18.11;100.00;97098.63;5039362;28;20110;-73
2022/06/09 09:58:15;;;;;;;4.55;3.08;;;;;;;18.23;100.00;97097.69;5040365;28;20025;-73
2022/06/09 10:00:41;;;;;;;;;;;;;;;18.22;100.00;97094.09;5043173;28;20065;-72
2022/06/09 10:08:47;;;;;;;7.35;3.63;;;;;;;18.84;100.00;97101.19;5041781;28;20043;-73
2022/06/09 10:14:38;;;;;;;4.25;3.15;;;;;;;19.31;100.00;97099.97;5047799;28;20512;-73
2022/06/09 10:17:09;;;;;;;4.40;3.38;;;;;;;19.42;100.00;97098.97;5041570;28;20024;-73
2022/06/09 10:19:34;;;;;;;4.10;3.05;;;;;;;19.67;100.00;97096.59;5034856;28;20025;-73
2022/06/09 10:22:04;;;;;;;5.38;3.35;;;;;;;19.49;100.00;97098.28;5038228;28;20646;-73
2022/06/09 10:24:59;;;;;;;6.75;3.08;;;;;;;19.60;100.00;97096.47;5046204;28;20075;-72
2022/06/09 10:27:32;;;;;;;5.27;3.87;;;;;;;19.79;100.00;97093.56;5042258;28;20447;-73
2022/06/09 10:30:18;;;;;;;5.40;3.30;;;;;;;19.54;100.00;97096.00;5041431;28;20506;-72
2022/06/09 10:32:55;;;;;;;5.55;3.47;;;;;;;19.72;100.00;97096.25;5026371;28;20031;-73
2022/06/09 10:35:35;;;;;;;7.05;4.63;;;;;;;19.90;100.00;97094.50;5040220;28;20025;-74
2022/06/09 10:38:10;;;;;;;5.10;3.25;;;;;;;20.02;100.00;97091.47;5045651;28;20056;-72
2022/06/09 10:40:47;;;;;;;4.25;3.15;;;;;;;19.66;100.00;97086.66;5034051;28;20379;-76
2022/06/09 10:43:39;;;;;;;4.10;3.45;;;;;;;19.56;100.00;97087.31;5046067;28;20029;-75
2022/06/09 10:46:26;;;;;;;6.63;3.78;;;;;;;19.20;100.00;97089.50;5039524;28;20029;-73
2022/06/09 10:55:14;;;;;;;5.28;3.40;;;;;;;18.73;100.00;97088.34;5039049;28;20088;-74
2022/06/09 10:57:46;;;;;;;6.47;3.50;;;;;;;18.20;100.00;97096.41;5042539;28;20022;-74
2022/06/09 11:00:21;;;;;;;6.05;3.20;;;;;;;18.47;100.00;97100.09;5034187;28;20513;-73
2022/06/09 11:02:50;;;;;;;5.25;3.70;;;;;;;18.36;100.00;97093.56;5047202;28;20033;-73
2022/06/09 11:05:20;;;;;;;9.40;3.50;;;;;;;-144.65;100.00;64500.88;5044287;28;20029;-74
2022/06/09 11:08:00;;;;;;;5.90;3.20;;;;;;;-144.65;100.00;64500.88;5046295;28;20016;-74
2022/06/09 11:10:28;;;;;;;5.88;3.33;;;;;;;-144.65;100.00;64500.88;5045372;28;20029;-73
2022/06/09 11:13:04;;;;;;;7.38;4.10;;;;;;;-144.65;100.00;64500.88;5038651;28;20014;-73
2022/06/09 11:15:38;;;;;;;3.75;3.03;;;;;;;-144.65;100.00;64500.88;5042198;28;20108;-74
2022/06/09 11:18:48;;;;;;;4.78;3.38;;;;;;;-144.65;100.00;64500.88;5040368;28;20036;-73
2022/06/09 11:21:22;;;;;;;4.63;2.80;;;;;;;-144.65;100.00;64500.88;5028881;28;20672;-73
2022/06/09 11:24:05;;;;;;;3.92;3.13;;;;;;;-144.65;100.00;64500.88;5050000;28;20025;-74
2022/06/09 11:26:39;;;;;;;6.18;3.28;;;;;;;-144.65;100.00;64500.88;5029402;28;20033;-73
2022/06/09 11:29:28;;;;;;;5.85;3.47;;;;;;;-144.65;100.00;64500.88;5030271;28;20026;-73
2022/06/09 11:32:21;;;;;;;6.22;3.92;;;;;;;-144.65;100.00;64500.88;5030089;28;20044;-74
2022/06/09 11:35:05;;;;;;;7.30;4.13;;;;;;;-144.65;100.00;64500.88;5030984;28;20043;-74
2022/06/09 11:37:51;;;;;;;5.32;3.90;;;;;;;-144.65;100.00;64500.88;5044629;28;20033;-74
2022/06/09 11:40:31;;;;;;;4.20;3.60;;;;;;;-144.65;100.00;64500.88;5050180;28;20051;-74
2022/06/09 11:43:27;;;;;;;6.47;3.88;;;;;;;-144.65;100.00;64500.88;5049824;28;20056;-74
2022/06/09 11:46:00;;;;;;;6.85;3.63;;;;;;;-144.65;100.00;64500.88;5012220;28;20037;-74
2022/06/09 11:48:39;;;;;;;4.93;4.10;;;;;;;-144.65;100.00;64500.88;5050267;28;20521;-74
2022/06/09 11:51:05;;;;;;;5.15;3.75;;;;;;;-144.65;100.00;64500.88;5050375;28;20120;-74
2022/06/09 11:53:35;;;;;;;9.13;4.63;;;;;;;-144.65;100.00;64500.88;5033388;28;20100;-74
2022/06/09 11:56:33;;;;;;;4.22;3.05;;;;;;;-144.65;100.00;64500.88;5033854;28;20095;-73
2022/06/09 11:59:02;;;;;;;6.35;3.42;;;;;;;-144.65;100.00;64500.88;5035161;28;20505;-74
2022/06/09 12:01:39;;;;;;;5.07;3.97;;;;;;;-144.65;100.00;64500.88;5033085;28;20546;-73
2022/06/09 12:04:14;;;;;;;5.35;3.33;;;;;;;-144.65;100.00;64500.88;5047916;28;20033;-73